Time;durP1;ratioP1;P1;durP2;ratioP2;P2;SDS_P1;SDS_P2;PMS_P1;PMS_P2;Temp;Humidity;BMP_temperature;BMP_pressure;BME280_temperature;BME280_humidity;BME280_pressure;Samples;Min_cycle;Max_cycle;Signal;HPM_P1;HPM_P2
2023/05/25 00:00:07;;;;;;;38.38;22.00;;;8.50;99.90;;;;;;5093007;28;20067;-67
2023/05/25 00:02:34;;;;;;;40.58;21.92;;;8.50;99.90;;;;;;5093264;28;20537;-67
2023/05/25 00:05:01;;;;;;;40.05;19.80;;;8.40;99.90;;;;;;5093255;28;20150;-67
2023/05/25 00:07:27;;;;;;;38.22;20.23;;;8.40;99.90;;;;;;5093249;28;20107;-67
2023/05/25 00:09:52;;;;;;;37.00;20.05;;;8.30;99.90;;;;;;5093033;28;20075;-67
2023/05/25 00:12:18;;;;;;;40.08;20.42;;;8.30;99.90;;;;;;5093064;28;20051;-67
2023/05/25 00:14:44;;;;;;;40.20;19.30;;;8.20;99.90;;;;;;5093240;28;20534;-67
2023/05/25 00:17:10;;;;;;;35.53;18.63;;;8.10;99.90;;;;;;5093134;28;20043;-67
2023/05/25 00:19:41;;;;;;;36.97;19.05;;;8.10;99.90;;;;;;5096319;28;20036;-67
2023/05/25 00:22:08;;;;;;;35.33;18.42;;;8.00;99.90;;;;;;5096938;28;20362;-67
2023/05/25 00:24:33;;;;;;;41.78;19.00;;;8.00;99.90;;;;;;5096750;28;20027;-68
2023/05/25 00:26:59;;;;;;;33.78;18.42;;;7.90;99.90;;;;;;5096748;28;20036;-67
2023/05/25 00:29:25;;;;;;;28.55;17.88;;;7.90;99.90;;;;;;5096610;28;20516;-67
2023/05/25 00:31:51;;;;;;;32.08;17.40;;;7.80;99.90;;;;;;5096640;28;20106;-67
2023/05/25 00:34:17;;;;;;;32.63;19.20;;;7.80;99.90;;;;;;5096844;28;20043;-67
2023/05/25 00:36:43;;;;;;;41.92;20.75;;;7.80;99.90;;;;;;5096604;28;20032;-67
2023/05/25 00:39:08;;;;;;;30.90;19.02;;;7.70;99.90;;;;;;5096651;28;20074;-67
2023/05/25 00:41:40;;;;;;;34.17;19.75;;;7.70;99.90;;;;;;5096319;28;20043;-67
2023/05/25 00:44:06;;;;;;;37.92;19.45;;;7.70;99.90;;;;;;5096319;28;20024;-67
2023/05/25 00:46:33;;;;;;;33.17;18.38;;;7.60;99.90;;;;;;5095341;28;20035;-67
2023/05/25 00:48:59;;;;;;;29.58;17.98;;;7.60;99.90;;;;;;5096230;28;20023;-67
2023/05/25 00:51:26;;;;;;;30.20;17.17;;;7.50;99.90;;;;;;5094834;28;20020;-67
2023/05/25 00:53:51;;;;;;;32.83;18.13;;;7.50;99.90;;;;;;5096407;28;20028;-67
2023/05/25 00:56:21;;;;;;;33.85;18.70;;;7.50;99.90;;;;;;5096211;28;20024;-67
2023/05/25 00:58:50;;;;;;;32.17;17.35;;;7.50;99.90;;;;;;5095901;28;20032;-67
2023/05/25 01:01:17;;;;;;;33.35;17.58;;;7.50;99.90;;;;;;5096062;28;20111;-67
2023/05/25 01:03:47;;;;;;;41.60;19.85;;;7.40;99.90;;;;;;5096132;28;20039;-67
2023/05/25 01:06:16;;;;;;;35.63;19.33;;;7.40;99.90;;;;;;5095819;28;20016;-67
2023/05/25 01:08:48;;;;;;;36.03;19.75;;;7.30;99.90;;;;;;5096145;28;20085;-67
2023/05/25 01:11:15;;;;;;;36.80;18.48;;;7.30;99.90;;;;;;5095930;28;20433;-67
2023/05/25 01:13:41;;;;;;;43.80;20.35;;;7.30;99.90;;;;;;5095505;28;20035;-67
2023/05/25 01:16:08;;;;;;;34.80;20.02;;;7.30;99.90;;;;;;5095911;28;20602;-67
2023/05/25 01:18:36;;;;;;;38.45;19.33;;;7.30;99.90;;;;;;5095515;28;20472;-67
2023/05/25 01:21:13;;;;;;;35.35;18.65;;;7.30;99.90;;;;;;5095487;28;20032;-67
2023/05/25 01:23:44;;;;;;;46.42;22.25;;;7.30;99.90;;;;;;5095852;28;20118;-67
2023/05/25 01:26:14;;;;;;;37.92;21.50;;;7.30;99.90;;;;;;5095663;28;20072;-67
2023/05/25 01:28:45;;;;;;;39.08;20.77;;;7.40;99.90;;;;;;5095183;28;20067;-67
2023/05/25 01:31:14;;;;;;;35.95;19.02;;;7.30;99.90;;;;;;5095598;28;20024;-67
2023/05/25 01:33:43;;;;;;;40.65;20.05;;;7.30;99.90;;;;;;5095759;28;20032;-67
2023/05/25 01:36:08;;;;;;;33.42;19.33;;;7.20;99.90;;;;;;5095621;28;20035;-67
2023/05/25 01:38:37;;;;;;;41.15;20.55;;;7.10;99.90;;;;;;5095471;28;20040;-67
2023/05/25 01:41:02;;;;;;;44.42;21.02;;;7.10;99.90;;;;;;5095176;28;20521;-67
2023/05/25 01:43:28;;;;;;;44.90;20.55;;;7.10;99.90;;;;;;5095119;28;20022;-67
2023/05/25 01:46:05;;;;;;;36.70;19.50;;;7.10;99.90;;;;;;5094922;28;20119;-67
2023/05/25 01:49:01;;;;;;;34.40;19.05;;;7.10;99.90;;;;;;5095094;28;20081;-67
2023/05/25 01:51:36;;;;;;;39.75;20.13;;;7.10;99.90;;;;;;5095007;28;20023;-67
2023/05/25 01:54:10;;;;;;;34.83;20.27;;;7.10;99.90;;;;;;5094856;28;20036;-67
2023/05/25 01:56:37;;;;;;;31.63;18.85;;;7.10;99.90;;;;;;5095126;28;20496;-67
2023/05/25 01:59:06;;;;;;;36.67;19.27;;;7.10;99.90;;;;;;5094903;28;20385;-67
2023/05/25 02:01:33;;;;;;;32.58;18.85;;;7.00;99.90;;;;;;5094678;28;20024;-67
2023/05/25 02:03:59;;;;;;;36.40;20.58;;;7.00;99.90;;;;;;5094791;28;20016;-67
2023/05/25 02:06:25;;;;;;;31.15;17.70;;;7.00;99.90;;;;;;5094894;28;20028;-67
2023/05/25 02:08:50;;;;;;;29.77;17.35;;;6.90;99.90;;;;;;5094807;28;20534;-67
2023/05/25 02:11:16;;;;;;;32.20;18.15;;;6.90;99.90;;;;;;5094438;28;20069;-67
2023/05/25 02:13:41;;;;;;;32.63;18.58;;;6.80;99.90;;;;;;5094954;28;20125;-67
2023/05/25 02:16:07;;;;;;;35.72;19.02;;;6.80;99.90;;;;;;5094728;28;20024;-67
2023/05/25 02:18:33;;;;;;;31.88;18.95;;;6.80;99.90;;;;;;5094111;28;20152;-67
2023/05/25 02:20:59;;;;;;;38.42;20.13;;;6.70;99.90;;;;;;5094393;28;20039;-67
2023/05/25 02:23:24;;;;;;;37.67;21.33;;;6.70;99.90;;;;;;5094380;28;20031;-67
2023/05/25 02:25:50;;;;;;;35.10;19.45;;;6.70;99.90;;;;;;5094431;28;20028;-67
2023/05/25 02:28:16;;;;;;;35.20;18.75;;;6.70;99.90;;;;;;5094444;28;20024;-67
2023/05/25 02:30:41;;;;;;;40.00;21.85;;;6.60;99.90;;;;;;5094330;28;20024;-67
2023/05/25 02:33:07;;;;;;;38.25;22.52;;;6.70;99.90;;;;;;5094379;28;20111;-67
2023/05/25 02:35:33;;;;;;;44.97;22.70;;;6.70;99.90;;;;;;5094169;28;20027;-67
2023/05/25 02:37:58;;;;;;;41.80;21.73;;;6.80;99.90;;;;;;5094150;28;20028;-67
2023/05/25 02:40:24;;;;;;;43.63;22.30;;;6.80;99.90;;;;;;5093270;28;20039;-67
2023/05/25 02:42:49;;;;;;;45.00;23.63;;;7.00;99.90;;;;;;5094128;28;20492;-67
2023/05/25 02:45:15;;;;;;;54.78;24.67;;;7.10;99.90;;;;;;5094073;28;20385;-67
2023/05/25 02:47:41;;;;;;;51.95;24.60;;;7.20;99.90;;;;;;5094163;28;20089;-67
2023/05/25 02:50:07;;;;;;;51.50;24.35;;;7.30;99.90;;;;;;5094064;28;20528;-67
2023/05/25 02:52:32;;;;;;;47.92;24.25;;;7.30;99.90;;;;;;5093916;28;20107;-67
2023/05/25 02:54:58;;;;;;;43.13;23.70;;;7.40;99.90;;;;;;5093850;28;20028;-67
2023/05/25 02:57:24;;;;;;;47.53;23.58;;;7.50;99.90;;;;;;5093787;28;20035;-67
2023/05/25 02:59:50;;;;;;;47.25;23.42;;;7.50;99.90;;;;;;5093913;28;20398;-67
2023/05/25 03:02:17;;;;;;;42.55;24.15;;;7.50;99.90;;;;;;5093771;28;20501;-67
2023/05/25 03:04:44;;;;;;;47.28;22.30;;;7.50;99.90;;;;;;5093979;28;20091;-67
2023/05/25 03:07:10;;;;;;;38.53;20.83;;;7.50;99.90;;;;;;5093574;28;20020;-67
2023/05/25 03:09:36;;;;;;;35.97;20.63;;;7.40;99.90;;;;;;5093735;28;20493;-67
2023/05/25 03:12:01;;;;;;;40.95;21.73;;;7.40;99.90;;;;;;5093794;28;20052;-67
2023/05/25 03:14:27;;;;;;;37.10;19.10;;;7.30;99.90;;;;;;5093540;28;20035;-67
2023/05/25 03:16:52;;;;;;;31.42;18.55;;;7.30;99.90;;;;;;5093809;28;20118;-67
2023/05/25 03:19:19;;;;;;;34.95;20.50;;;7.20;99.90;;;;;;5093260;28;20044;-67
2023/05/25 03:21:45;;;;;;;36.58;19.63;;;7.10;99.90;;;;;;5093762;28;20072;-67
2023/05/25 03:24:11;;;;;;;36.55;19.98;;;7.10;99.90;;;;;;5093491;28;20052;-67
2023/05/25 03:26:37;;;;;;;31.05;18.65;;;7.00;99.90;;;;;;5093359;28;20469;-67
2023/05/25 03:29:02;;;;;;;30.73;18.58;;;7.00;99.90;;;;;;5093593;28;20020;-67
2023/05/25 03:31:28;;;;;;;34.70;18.88;;;6.90;99.90;;;;;;5093362;28;20157;-67
2023/05/25 03:33:53;;;;;;;36.67;20.42;;;6.90;99.90;;;;;;5093470;28;20020;-67
2023/05/25 03:36:21;;;;;;;30.77;18.42;;;6.90;99.90;;;;;;5093055;28;20420;-67
2023/05/25 03:38:46;;;;;;;29.08;17.27;;;6.90;99.90;;;;;;5093325;28;20024;-67
2023/05/25 03:41:11;;;;;;;32.03;18.73;;;6.90;99.90;;;;;;5093257;28;20029;-67
2023/05/25 03:43:37;;;;;;;36.67;19.48;;;6.90;99.90;;;;;;5093313;28;20028;-67
2023/05/25 03:46:02;;;;;;;40.05;20.45;;;6.90;99.90;;;;;;5093373;28;20039;-67
2023/05/25 03:48:28;;;;;;;35.10;19.77;;;6.90;99.90;;;;;;5093014;28;20020;-67
2023/05/25 03:50:54;;;;;;;42.38;21.45;;;6.90;99.90;;;;;;5093214;28;20024;-67
2023/05/25 03:53:19;;;;;;;47.85;23.27;;;7.00;99.90;;;;;;5096589;28;20028;-67
2023/05/25 03:55:45;;;;;;;42.85;22.48;;;7.00;99.90;;;;;;5097356;28;20028;-67
2023/05/25 03:58:10;;;;;;;43.60;21.77;;;7.10;99.90;;;;;;5097380;28;20028;-67
2023/05/25 04:00:36;;;;;;;50.30;23.40;;;7.20;99.90;;;;;;5096975;28;20094;-67
2023/05/25 04:03:02;;;;;;;39.78;20.98;;;7.30;99.90;;;;;;5097141;28;20055;-67
2023/05/25 04:05:28;;;;;;;49.65;23.23;;;7.40;99.90;;;;;;5097280;28;20477;-67
2023/05/25 04:07:54;;;;;;;35.00;21.40;;;7.50;99.90;;;;;;5096835;28;20027;-67
2023/05/25 04:10:20;;;;;;;43.55;22.65;;;7.60;99.90;;;;;;5097062;28;20473;-67
2023/05/25 04:12:45;;;;;;;38.42;22.33;;;7.60;99.90;;;;;;5097101;28;20028;-67
2023/05/25 04:15:13;;;;;;;40.33;21.50;;;7.60;99.90;;;;;;5097162;28;20119;-67
2023/05/25 04:17:39;;;;;;;39.97;21.17;;;7.70;99.90;;;;;;5096856;28;20389;-67
2023/05/25 04:20:07;;;;;;;38.33;20.95;;;7.80;99.90;;;;;;5096576;28;20052;-67
2023/05/25 04:22:33;;;;;;;44.65;21.55;;;7.90;99.90;;;;;;5096956;28;20024;-67
2023/05/25 04:24:58;;;;;;;36.55;22.40;;;8.00;99.90;;;;;;5096970;28;20496;-67
2023/05/25 04:27:25;;;;;;;41.92;20.52;;;8.20;99.90;;;;;;5096852;28;20058;-67
2023/05/25 04:29:53;;;;;;;36.55;19.63;;;8.40;99.90;;;;;;5096850;28;20062;-68
2023/05/25 04:32:20;;;;;;;42.67;19.50;;;8.70;99.90;;;;;;5096884;28;20032;-67
2023/05/25 04:34:47;;;;;;;36.35;20.00;;;9.30;99.90;;;;;;5096638;28;20124;-67
2023/05/25 04:37:12;;;;;;;31.35;17.83;;;9.90;99.90;;;;;;5096602;28;20469;-67
2023/05/25 04:39:38;;;;;;;25.13;13.98;;;10.90;99.90;;;;;;5096192;28;20020;-67
2023/05/25 04:42:04;;;;;;;19.42;11.50;;;11.50;99.90;;;;;;5096417;28;20059;-67
2023/05/25 04:44:31;;;;;;;19.60;10.85;;;11.50;99.90;;;;;;5096435;28;20024;-67
2023/05/25 04:46:58;;;;;;;17.63;10.00;;;12.10;99.90;;;;;;5096537;28;20392;-67
2023/05/25 04:49:25;;;;;;;15.25;9.32;;;12.40;99.90;;;;;;5096496;28;20398;-67
2023/05/25 04:51:51;;;;;;;17.60;9.60;;;13.50;86.50;;;;;;5096280;28;20077;-68
2023/05/25 04:54:17;;;;;;;14.23;9.32;;;13.70;1.00;;;;;;5096311;28;20032;-68
2023/05/25 04:56:42;;;;;;;14.27;8.95;;;14.10;1.00;;;;;;5096229;28;20093;-68
2023/05/25 04:59:08;;;;;;;16.38;8.45;;;14.20;1.00;;;;;;5095957;28;20106;-68
2023/05/25 05:01:39;;;;;;;18.17;9.50;;;14.10;1.00;;;;;;5095993;28;20024;-68
2023/05/25 05:04:06;;;;;;;19.50;9.05;;;13.80;1.00;;;;;;5095336;28;20044;-68
2023/05/25 05:06:33;;;;;;;18.23;9.65;;;13.80;1.00;;;;;;5096202;28;20081;-68
2023/05/25 05:08:59;;;;;;;16.25;9.82;;;13.70;1.00;;;;;;5095920;28;20031;-67
2023/05/25 05:11:24;;;;;;;21.42;10.48;;;12.80;1.00;;;;;;5096055;28;20016;-67
2023/05/25 05:13:50;;;;;;;23.02;11.85;;;12.30;10.00;;;;;;5095838;28;20413;-67
2023/05/25 05:16:16;;;;;;;18.63;11.48;;;11.90;36.30;;;;;;5095972;28;20024;-67
2023/05/25 05:18:41;;;;;;;20.30;10.18;;;12.00;65.80;;;;;;5095578;28;20405;-67
2023/05/25 05:21:07;;;;;;;23.30;10.45;;;12.60;24.00;;;;;;5094287;28;20028;-67
2023/05/25 05:23:33;;;;;;;20.00;10.23;;;13.10;1.00;;;;;;5095509;28;20016;-68
2023/05/25 05:25:59;;;;;;;17.92;10.82;;;13.20;1.00;;;;;;5094956;28;20027;-67
2023/05/25 05:28:26;;;;;;;20.10;9.80;;;13.10;1.00;;;;;;5094112;28;20451;-68
2023/05/25 05:30:52;;;;;;;20.08;9.15;;;13.60;1.00;;;;;;5094858;28;20023;-68
2023/05/25 05:33:18;;;;;;;16.20;9.40;;;13.70;1.00;;;;;;5095651;28;20048;-68
2023/05/25 05:35:43;;;;;;;18.13;9.75;;;13.50;1.00;;;;;;5095624;28;20441;-68
2023/05/25 05:38:09;;;;;;;18.40;9.45;;;13.70;1.00;;;;;;5095239;28;20098;-68
2023/05/25 05:40:35;;;;;;;14.85;8.65;;;13.50;1.00;;;;;;5095138;28;20490;-67
2023/05/25 05:43:01;;;;;;;20.70;8.98;;;13.90;1.00;;;;;;5095233;28;20028;-68
2023/05/25 05:45:26;;;;;;;18.65;8.50;;;14.30;1.00;;;;;;5095379;28;20081;-68
2023/05/25 05:47:52;;;;;;;13.40;7.78;;;14.50;99.90;;;;;;5095299;28;20028;-68
2023/05/25 05:50:17;;;;;;;14.48;8.10;;;15.00;99.90;;;;;;5095269;28;20439;-68
2023/05/25 05:52:43;;;;;;;12.90;8.30;;;15.30;99.90;;;;;;5095123;28;20404;-68
2023/05/25 05:55:08;;;;;;;20.08;8.40;;;15.50;99.90;;;;;;5094815;28;20024;-68
2023/05/25 05:57:34;;;;;;;20.23;8.57;;;15.70;99.90;;;;;;5094950;28;20043;-68
2023/05/25 06:00:00;;;;;;;13.27;7.78;;;15.40;67.60;;;;;;5094846;28;20070;-68
2023/05/25 06:02:26;;;;;;;15.90;7.18;;;16.10;6.30;;;;;;5094795;28;20024;-68
2023/05/25 06:04:51;;;;;;;13.93;7.57;;;15.90;1.00;;;;;;5094806;28;20024;-68
2023/05/25 06:07:17;;;;;;;13.00;7.60;;;16.50;46.60;;;;;;5094796;28;20059;-68
2023/05/25 06:09:42;;;;;;;16.92;8.25;;;17.40;1.00;;;;;;5094821;28;20477;-68
2023/05/25 06:12:08;;;;;;;13.07;7.00;;;18.50;99.90;;;;;;5094602;28;20473;-68
2023/05/25 06:14:33;;;;;;;14.00;6.90;;;17.90;1.00;;;;;;5094527;28;20027;-68
2023/05/25 06:17:00;;;;;;;14.57;7.00;;;18.10;26.50;;;;;;5094274;28;20470;-68
2023/05/25 06:19:25;;;;;;;12.43;7.28;;;17.50;2.30;;;;;;5093170;28;20052;-68
2023/05/25 06:21:51;;;;;;;11.70;6.70;;;18.60;99.90;;;;;;5078121;28;20042;-69
2023/05/25 06:24:16;;;;;;;14.80;6.57;;;18.40;99.90;;;;;;5073793;28;20394;-68
2023/05/25 06:26:42;;;;;;;14.50;6.40;;;19.10;99.90;;;;;;5074203;28;20029;-68
2023/05/25 06:29:07;;;;;;;12.45;6.40;;;19.00;93.10;;;;;;5073769;28;20058;-68
2023/05/25 06:31:33;;;;;;;10.32;5.90;;;18.00;1.00;;;;;;5073830;28;20047;-68
2023/05/25 06:33:58;;;;;;;13.90;6.00;;;17.70;99.90;;;;;;5073547;28;20020;-68
2023/05/25 06:36:24;;;;;;;12.40;7.05;;;18.40;26.80;;;;;;5073941;28;20032;-68
2023/05/25 06:38:49;;;;;;;14.32;6.63;;;17.70;99.90;;;;;;5072735;28;20028;-68
2023/05/25 06:41:15;;;;;;;11.95;6.20;;;17.80;99.90;;;;;;5069247;28;20068;-68
2023/05/25 06:43:41;;;;;;;20.67;8.45;;;17.30;99.90;;;;;;5075862;28;20027;-68
2023/05/25 06:46:09;;;;;;;14.60;8.48;;;17.40;1.00;;;;;;5073100;28;20017;-69
2023/05/25 06:48:34;;;;;;;14.75;7.78;;;17.00;1.00;;;;;;5089503;28;20494;-68
2023/05/25 06:51:00;;;;;;;12.77;7.65;;;16.70;99.90;;;;;;5071789;28;20032;-68
2023/05/25 06:53:25;;;;;;;18.63;8.48;;;15.90;99.90;;;;;;5080315;28;20043;-68
2023/05/25 06:55:51;;;;;;;14.35;9.18;;;15.20;99.90;;;;;;5079659;28;20059;-68
2023/05/25 06:58:17;;;;;;;15.55;9.57;;;15.30;99.90;;;;;;5089799;28;20335;-68
2023/05/25 07:00:42;;;;;;;15.95;9.45;;;15.80;1.00;;;;;;5068372;28;20123;-68
2023/05/25 07:03:08;;;;;;;15.13;9.30;;;15.90;72.40;;;;;;5071655;28;20436;-68
2023/05/25 07:05:33;;;;;;;19.02;10.15;;;15.70;99.90;;;;;;5061221;28;20028;-68
2023/05/25 07:07:59;;;;;;;17.90;10.32;;;15.20;41.90;;;;;;5057877;28;20028;-68
2023/05/25 07:10:24;;;;;;;20.35;11.00;;;15.10;8.00;;;;;;5076987;28;20546;-68
2023/05/25 07:12:50;;;;;;;20.63;11.43;;;15.00;1.00;;;;;;5062437;28;20502;-68
2023/05/25 07:15:15;;;;;;;18.30;12.48;;;14.60;99.90;;;;;;5057796;28;20042;-68
2023/05/25 07:17:41;;;;;;;22.75;12.75;;;14.60;99.90;;;;;;5065858;28;20040;-68
2023/05/25 07:20:07;;;;;;;25.60;13.40;;;14.20;1.00;;;;;;5076955;28;20040;-68
2023/05/25 07:22:33;;;;;;;23.10;14.70;;;13.90;99.90;;;;;;5058886;28;20033;-67
2023/05/25 07:24:58;;;;;;;25.35;16.13;;;14.00;99.90;;;;;;5070233;28;20078;-67
2023/05/25 07:27:24;;;;;;;22.15;15.73;;;13.80;99.90;;;;;;5064866;28;20428;-67
2023/05/25 07:29:50;;;;;;;21.42;15.70;;;13.60;99.90;;;;;;5062703;28;20032;-66
2023/05/25 07:32:15;;;;;;;28.02;16.73;;;13.50;1.00;;;;;;5067424;28;20492;-67
2023/05/25 07:34:41;;;;;;;22.63;15.43;;;13.00;1.00;;;;;;5064193;28;20116;-67
2023/05/25 07:37:06;;;;;;;28.10;16.27;;;13.10;1.00;;;;;;5082896;28;20028;-66
2023/05/25 07:39:32;;;;;;;26.05;15.73;;;13.20;1.00;;;;;;5058948;28;20490;-67
2023/05/25 07:41:57;;;;;;;23.08;14.38;;;13.20;1.00;;;;;;5062670;28;20374;-67
2023/05/25 07:44:23;;;;;;;22.27;13.45;;;13.30;1.00;;;;;;5064037;28;20029;-67
2023/05/25 07:46:48;;;;;;;26.00;13.98;;;13.40;1.00;;;;;;5058702;28;20073;-68
2023/05/25 07:49:15;;;;;;;22.23;13.38;;;13.30;99.90;;;;;;5064781;28;20768;-67
2023/05/25 07:51:45;;;;;;;24.15;13.75;;;13.30;99.90;;;;;;5085409;28;20102;-69
2023/05/25 07:54:11;;;;;;;24.92;14.20;;;13.20;1.00;;;;;;5065740;28;20107;-67
2023/05/25 07:56:37;;;;;;;26.13;13.65;;;13.20;1.00;;;;;;5061953;28;20024;-67
2023/05/25 07:59:03;;;;;;;18.35;12.00;;;13.20;1.00;;;;;;5063065;28;20032;-67
2023/05/25 08:01:28;;;;;;;19.65;11.93;;;13.20;99.90;;;;;;5069825;28;20155;-67
2023/05/25 08:03:54;;;;;;;19.15;12.45;;;13.20;99.90;;;;;;5071168;28;20036;-67
2023/05/25 08:06:19;;;;;;;19.05;11.52;;;13.30;99.90;;;;;;5072220;28;20046;-67
2023/05/25 08:08:45;;;;;;;17.95;10.80;;;13.00;1.00;;;;;;5052751;28;20125;-67
2023/05/25 08:11:11;;;;;;;19.13;11.75;;;12.80;1.00;;;;;;5071198;28;20072;-67
2023/05/25 08:13:37;;;;;;;25.80;12.23;;;12.80;1.00;;;;;;5068479;28;20122;-67
2023/05/25 08:16:03;;;;;;;18.98;11.05;;;13.00;1.00;;;;;;5068630;28;20482;-67
2023/05/25 08:18:30;;;;;;;19.17;10.52;;;13.20;1.00;;;;;;5062875;28;20098;-67
2023/05/25 08:20:56;;;;;;;19.65;9.57;;;13.30;99.90;;;;;;5074790;28;20098;-67
2023/05/25 08:23:21;;;;;;;17.20;9.50;;;13.40;99.90;;;;;;5080332;28;20135;-68
2023/05/25 08:25:47;;;;;;;15.98;8.50;;;13.70;85.70;;;;;;5073972;28;20059;-67
2023/05/25 08:28:13;;;;;;;18.75;8.20;;;13.60;99.90;;;;;;5072242;28;20035;-67
2023/05/25 08:30:38;;;;;;;18.58;8.23;;;13.40;99.90;;;;;;5071041;28;20032;-67
2023/05/25 08:33:04;;;;;;;18.55;8.98;;;13.40;99.90;;;;;;5065448;28;20391;-67
2023/05/25 08:35:29;;;;;;;16.85;9.00;;;13.30;99.90;;;;;;5066455;28;20040;-67
2023/05/25 08:37:55;;;;;;;18.35;9.77;;;13.60;99.90;;;;;;5072412;28;20064;-67
2023/05/25 08:40:22;;;;;;;19.30;8.43;;;13.80;57.80;;;;;;5085809;28;20036;-67
2023/05/25 08:42:47;;;;;;;20.83;9.00;;;13.60;4.40;;;;;;5067034;28;20033;-67
2023/05/25 08:45:13;;;;;;;21.55;10.55;;;13.60;1.00;;;;;;5065640;28;20035;-67
2023/05/25 08:47:41;;;;;;;22.33;12.60;;;13.40;1.00;;;;;;5063165;28;20025;-67
2023/05/25 08:50:08;;;;;;;25.60;14.75;;;13.40;99.90;;;;;;5065581;28;20040;-67
2023/05/25 08:52:36;;;;;;;25.73;15.13;;;13.40;99.90;;;;;;5065035;28;20082;-67
2023/05/25 08:55:05;;;;;;;33.85;16.50;;;13.40;99.90;;;;;;5074309;28;20028;-67
2023/05/25 08:57:53;;;;;;;27.42;16.48;;;13.60;1.00;;;;;;5064473;28;20492;-67
2023/05/25 09:00:26;;;;;;;31.30;17.00;;;13.70;99.90;;;;;;5073342;28;20029;-67
2023/05/25 09:03:06;;;;;;;30.80;16.30;;;13.80;49.90;;;;;;5077206;28;20016;-67
2023/05/25 09:05:35;;;;;;;29.20;16.02;;;14.10;99.90;;;;;;5057446;28;20020;-67
2023/05/25 09:08:03;;;;;;;29.67;15.80;;;14.60;99.90;;;;;;5072371;28;20369;-67
2023/05/25 09:10:31;;;;;;;29.55;16.50;;;15.40;99.90;;;;;;5067968;28;20111;-67
2023/05/25 09:12:58;;;;;;;26.40;14.88;;;16.30;99.90;;;;;;5072034;28;20063;-67
2023/05/25 09:15:24;;;;;;;24.98;15.38;;;16.50;99.90;;;;;;5072862;28;20133;-66
2023/05/25 09:17:49;;;;;;;24.58;15.27;;;16.50;99.90;;;;;;5083756;28;20036;-67
2023/05/25 09:20:16;;;;;;;25.92;15.50;;;16.50;1.00;;;;;;5083094;28;20040;-67
2023/05/25 09:22:43;;;;;;;23.75;14.32;;;16.80;99.90;;;;;;5065814;28;20128;-67
2023/05/25 09:25:09;;;;;;;23.92;15.25;;;16.70;99.90;;;;;;5065224;28;20098;-67
2023/05/25 09:27:36;;;;;;;23.20;14.05;;;16.80;1.00;;;;;;5066402;28;20029;-67
2023/05/25 09:30:03;;;;;;;20.58;12.70;;;16.60;99.90;;;;;;5062948;28;20036;-67
2023/05/25 09:32:28;;;;;;;23.75;13.95;;;16.10;99.90;;;;;;5067168;28;20025;-67
2023/05/25 09:34:56;;;;;;;25.65;14.38;;;16.20;1.00;;;;;;5076297;28;20028;-67
2023/05/25 09:37:22;;;;;;;22.17;13.38;;;15.60;99.90;;;;;;5068382;28;20024;-66
2023/05/25 09:39:50;;;;;;;27.00;13.73;;;15.30;99.90;;;;;;5073434;28;20115;-66
2023/05/25 09:42:16;;;;;;;25.45;13.45;;;15.10;1.00;;;;;;5081836;28;20028;-67
2023/05/25 09:44:42;;;;;;;21.00;13.10;;;15.10;1.00;;;;;;5076757;28;20020;-67
2023/05/25 09:47:08;;;;;;;26.92;13.40;;;15.40;99.90;;;;;;5074297;28;20059;-67
2023/05/25 09:49:34;;;;;;;25.17;14.40;;;14.90;99.90;;;;;;5067649;28;20127;-67
2023/05/25 09:52:00;;;;;;;22.55;12.60;;;14.70;49.60;;;;;;5057134;28;20051;-67
2023/05/25 09:54:26;;;;;;;21.60;13.45;;;14.50;99.90;;;;;;5052936;28;20057;-67
2023/05/25 09:56:51;;;;;;;23.73;13.98;;;14.30;99.90;;;;;;5062058;28;20077;-66
2023/05/25 09:59:17;;;;;;;22.58;12.80;;;14.40;1.00;;;;;;5061962;28;21917;-67
2023/05/25 10:01:44;;;;;;;25.25;13.73;;;14.50;1.00;;;;;;5050875;28;20017;-67
2023/05/25 10:04:09;;;;;;;21.25;12.93;;;14.50;1.00;;;;;;5060902;28;20033;-67
2023/05/25 10:06:37;;;;;;;22.70;14.40;;;14.80;1.00;;;;;;5070689;28;20509;-67
2023/05/25 10:09:07;;;;;;;21.60;13.60;;;14.80;99.90;;;;;;5067526;28;20028;-68
2023/05/25 10:11:35;;;;;;;23.48;13.60;;;15.00;99.90;;;;;;5061186;28;20035;-67
2023/05/25 10:14:05;;;;;;;23.67;13.85;;;15.30;99.90;;;;;;5062063;28;20105;-68
2023/05/25 10:16:33;;;;;;;25.15;13.23;;;15.50;1.00;;;;;;5070926;28;20031;-68
2023/05/25 10:19:25;;;;;;;20.98;12.82;;;16.00;1.00;;;;;;5061430;28;20179;-67
2023/05/25 10:22:06;;;;;;;22.60;12.45;;;15.90;1.00;;;;;;5076797;28;20043;-68
2023/05/25 10:24:55;;;;;;;23.90;12.57;;;16.30;1.00;;;;;;5072529;28;20052;-68
2023/05/25 10:27:24;;;;;;;19.50;11.32;;;16.80;99.90;;;;;;5069468;28;20043;-67
2023/05/25 10:29:51;;;;;;;19.83;12.38;;;17.10;99.90;;;;;;5067155;28;20028;-68
2023/05/25 10:32:17;;;;;;;17.85;11.65;;;17.30;99.90;;;;;;5055304;28;20063;-67
2023/05/25 10:34:43;;;;;;;19.73;11.48;;;17.90;99.90;;;;;;5059092;28;20031;-68
2023/05/25 10:37:11;;;;;;;17.52;11.55;;;17.30;99.90;;;;;;5074437;28;20478;-68
2023/05/25 10:39:37;;;;;;;18.83;11.40;;;17.30;1.00;;;;;;5072424;28;20032;-68
2023/05/25 10:42:04;;;;;;;19.98;11.02;;;17.10;1.00;;;;;;5080361;28;20085;-68
2023/05/25 10:44:31;;;;;;;19.25;11.05;;;16.50;99.90;;;;;;5066558;28;20052;-68
2023/05/25 10:46:58;;;;;;;23.52;10.13;;;16.60;99.90;;;;;;5067039;28;20041;-68
2023/05/25 10:49:49;;;;;;;17.77;10.23;;;16.20;1.00;;;;;;5065217;28;21146;-68
2023/05/25 10:52:17;;;;;;;15.13;9.68;;;16.60;99.90;;;;;;5053438;28;20028;-68
2023/05/25 10:54:43;;;;;;;15.75;9.60;;;17.50;99.90;;;;;;5059314;28;20394;-68
2023/05/25 10:57:13;;;;;;;18.33;10.38;;;17.80;1.00;;;;;;5072799;28;20025;-68
2023/05/25 10:59:40;;;;;;;16.38;10.05;;;17.70;99.90;;;;;;5068453;28;20032;-68
2023/05/25 11:02:06;;;;;;;17.63;9.77;;;18.00;99.90;;;;;;5063542;28;20024;-68
2023/05/25 11:04:36;;;;;;;14.15;10.07;;;17.60;99.90;;;;;;5065675;28;20031;-68
2023/05/25 11:07:07;;;;;;;17.98;10.35;;;16.70;99.90;;;;;;5061239;28;20020;-67
2023/05/25 11:09:34;;;;;;;21.83;11.43;;;16.50;1.00;;;;;;5066703;28;20029;-68
2023/05/25 11:12:02;;;;;;;17.75;11.15;;;16.50;1.00;;;;;;5068257;28;20029;-68
2023/05/25 11:14:31;;;;;;;17.30;10.45;;;16.50;99.90;;;;;;5070823;28;20030;-68
2023/05/25 11:17:14;;;;;;;18.00;11.02;;;16.70;99.90;;;;;;5065220;28;20020;-68
2023/05/25 11:19:46;;;;;;;18.77;10.75;;;16.70;99.90;;;;;;5061853;28;20041;-67
2023/05/25 11:22:29;;;;;;;17.38;10.52;;;16.80;99.90;;;;;;5064735;28;20053;-68
2023/05/25 11:24:57;;;;;;;21.50;11.10;;;16.70;99.90;;;;;;5057836;28;20024;-68
2023/05/25 11:27:30;;;;;;;16.17;9.88;;;16.70;99.90;;;;;;5058765;28;20025;-67
2023/05/25 11:29:58;;;;;;;18.80;10.75;;;16.80;99.90;;;;;;5055983;28;20054;-67
2023/05/25 11:32:25;;;;;;;17.90;11.73;;;16.70;1.00;;;;;;5064004;28;20473;-68
2023/05/25 11:34:52;;;;;;;22.83;11.80;;;16.20;1.00;;;;;;5060817;28;20082;-68
2023/05/25 11:37:20;;;;;;;18.85;11.27;;;16.30;99.90;;;;;;5060689;28;20119;-69
2023/05/25 11:39:47;;;;;;;15.35;10.60;;;16.30;99.90;;;;;;5065436;28;20561;-67
2023/05/25 11:42:14;;;;;;;20.65;11.00;;;16.20;99.90;;;;;;5082470;28;20048;-67
2023/05/25 11:44:40;;;;;;;20.48;11.73;;;16.00;5.90;;;;;;5063197;28;20082;-67
2023/05/25 11:47:07;;;;;;;23.58;11.82;;;16.10;99.90;;;;;;5075865;28;20443;-68
2023/05/25 11:49:33;;;;;;;24.73;11.23;;;15.80;99.90;;;;;;5064996;28;20020;-67
2023/05/25 11:52:04;;;;;;;21.27;10.88;;;15.60;99.90;;;;;;5076685;28;20040;-67
2023/05/25 11:54:30;;;;;;;23.02;11.52;;;15.40;99.90;;;;;;5069564;28;20131;-67
2023/05/25 11:56:58;;;;;;;22.98;12.02;;;15.30;1.00;;;;;;5069150;28;20032;-67
2023/05/25 11:59:25;;;;;;;24.00;11.93;;;15.30;1.00;;;;;;5070748;28;20401;-67
2023/05/25 12:01:59;;;;;;;22.73;12.48;;;15.30;99.90;;;;;;5072740;28;20098;-67
2023/05/25 12:04:25;;;;;;;19.30;10.95;;;16.00;99.90;;;;;;5065600;28;20082;-67
2023/05/25 12:06:50;;;;;;;20.17;12.00;;;16.20;99.90;;;;;;5070110;28;20487;-67
2023/05/25 12:09:21;;;;;;;26.77;12.00;;;16.60;99.90;;;;;;5063291;28;20385;-68
2023/05/25 12:11:47;;;;;;;20.27;11.77;;;16.20;1.00;;;;;;5062648;28;20025;-67
2023/05/25 12:14:13;;;;;;;20.45;12.77;;;16.10;1.00;;;;;;5072162;28;20103;-68
2023/05/25 12:16:40;;;;;;;20.30;11.75;;;16.20;99.90;;;;;;5060854;28;20128;-68
2023/05/25 12:19:07;;;;;;;23.20;12.73;;;16.30;99.90;;;;;;5061253;28;20054;-67
2023/05/25 12:21:33;;;;;;;22.33;11.80;;;16.40;99.90;;;;;;5069931;28;20116;-68
2023/05/25 12:24:00;;;;;;;20.20;12.02;;;16.40;1.00;;;;;;5069015;28;20029;-68
2023/05/25 12:26:26;;;;;;;17.33;11.25;;;16.70;99.90;;;;;;5084760;28;20097;-68
2023/05/25 12:29:09;;;;;;;19.25;11.30;;;16.60;99.90;;;;;;5080372;28;20024;-68
2023/05/25 12:31:37;;;;;;;18.05;10.48;;;16.80;99.90;;;;;;5076068;28;20028;-68
2023/05/25 12:34:25;;;;;;;17.75;9.73;;;17.30;99.90;;;;;;5063974;28;20090;-68